createdAt,value
2023-11-20T00:00:54.262Z,9.39
2023-11-20T00:03:23.228Z,9.35
2023-11-20T00:05:50.859Z,9.21
2023-11-20T00:08:19.984Z,9.27
2023-11-20T00:10:47.639Z,9.33
2023-11-20T00:13:15.270Z,9.39
2023-11-20T00:15:43.142Z,9.40
2023-11-20T00:18:12.547Z,9.46
2023-11-20T00:20:40.235Z,9.42
2023-11-20T00:23:07.854Z,9.40
2023-11-20T00:25:35.509Z,9.38
2023-11-20T00:28:03.558Z,9.37
2023-11-20T00:30:31.349Z,9.35
2023-11-20T00:33:00.112Z,9.33
2023-11-20T00:35:29.174Z,9.26
2023-11-20T00:37:57.234Z,9.23
2023-11-20T00:40:24.957Z,9.16
2023-11-20T00:42:52.606Z,9.11
2023-11-20T00:45:20.237Z,9.17
2023-11-20T00:47:47.923Z,9.11
2023-11-20T00:50:15.660Z,9.04
2023-11-20T00:52:45.693Z,8.93
2023-11-20T00:55:13.691Z,8.98
2023-11-20T00:57:42.220Z,8.99
2023-11-20T01:00:12.930Z,8.97
2023-11-20T01:02:41.907Z,8.92
2023-11-20T01:05:10.620Z,8.85
2023-11-20T01:07:38.298Z,8.87
2023-11-20T01:10:09.161Z,8.83
2023-11-20T01:12:37.376Z,8.89
2023-11-20T01:15:08.564Z,8.83
2023-11-20T01:17:36.762Z,8.87
2023-11-20T01:20:05.338Z,8.86
2023-11-20T01:22:32.970Z,8.80
2023-11-20T01:25:00.875Z,8.74
2023-11-20T01:27:30.015Z,8.72
2023-11-20T01:29:58.347Z,8.75
2023-11-20T01:32:25.997Z,8.73
2023-11-20T01:34:53.643Z,8.78
2023-11-20T01:37:21.344Z,8.83
2023-11-20T01:39:49.117Z,8.86
2023-11-20T01:42:17.615Z,8.94
2023-11-20T01:44:46.610Z,8.91
2023-11-20T01:47:14.761Z,8.89
2023-11-20T01:49:43.996Z,8.87
2023-11-20T01:52:11.997Z,8.87
2023-11-20T01:54:40.047Z,8.89
2023-11-20T01:57:11.142Z,8.90
2023-11-20T01:59:40.257Z,8.93
2023-11-20T02:02:10.748Z,9.00
2023-11-20T02:04:39.021Z,9.02
2023-11-20T02:07:08.914Z,9.10
2023-11-20T02:09:36.945Z,9.07
2023-11-20T02:12:06.903Z,9.06
2023-11-20T02:14:34.756Z,9.09
2023-11-20T02:17:03.504Z,9.11
2023-11-20T02:19:32.514Z,9.04
2023-11-20T02:22:00.202Z,9.08
2023-11-20T02:24:28.677Z,9.06
2023-11-20T02:27:13.988Z,9.00
2023-11-20T02:29:54.569Z,9.02
2023-11-20T02:32:22.710Z,9.11
2023-11-20T02:34:52.664Z,9.13
2023-11-20T02:37:20.677Z,9.32
2023-11-20T02:39:50.593Z,9.38
2023-11-20T02:42:18.317Z,9.47
2023-11-20T02:44:47.164Z,9.54
2023-11-20T02:47:16.455Z,9.59
2023-11-20T02:49:44.406Z,9.61
2023-11-20T02:52:12.316Z,9.63
2023-11-20T02:54:40.027Z,9.67
2023-11-20T02:57:08.691Z,9.73
2023-11-20T02:59:36.399Z,9.82
2023-11-20T03:02:05.093Z,9.82
2023-11-20T03:04:34.119Z,9.81
2023-11-20T03:07:01.884Z,9.88
2023-11-20T03:09:29.522Z,9.95
2023-11-20T03:11:57.145Z,9.97
2023-11-20T03:14:24.898Z,10.00
2023-11-20T03:16:52.775Z,10.04
2023-11-20T03:19:20.461Z,10.10
2023-11-20T03:21:49.397Z,10.20
2023-11-20T03:24:17.075Z,10.20
2023-11-20T03:26:44.665Z,10.17
2023-11-20T03:29:12.362Z,10.19
2023-11-20T03:31:40.735Z,10.18
2023-11-20T03:34:09.389Z,10.14
2023-11-20T03:36:37.321Z,10.13
2023-11-20T03:39:06.637Z,10.16
2023-11-20T03:41:34.484Z,10.14
2023-11-20T03:44:02.143Z,10.17
2023-11-20T03:46:29.808Z,10.17
2023-11-20T03:48:58.062Z,10.12
2023-11-20T03:51:26.937Z,10.07
2023-11-20T03:53:54.637Z,10.04
2023-11-20T03:56:23.582Z,10.01
2023-11-20T03:58:51.201Z,10.02
2023-11-20T04:01:18.876Z,10.00
2023-11-20T04:03:47.329Z,10.00
2023-11-20T04:06:14.998Z,10.01
2023-11-20T04:08:42.625Z,9.99
2023-11-20T04:11:10.930Z,10.00
2023-11-20T04:13:39.905Z,9.93
2023-11-20T04:16:09.178Z,9.87
2023-11-20T04:18:37.284Z,9.82
2023-11-20T04:21:06.930Z,9.84
2023-11-20T04:23:34.709Z,9.74
2023-11-20T04:26:02.358Z,9.80
2023-11-20T04:28:32.132Z,9.79
2023-11-20T04:31:01.650Z,9.76
2023-11-20T04:33:29.584Z,9.76
2023-11-20T04:35:57.184Z,9.78
2023-11-20T04:38:30.379Z,9.78
2023-11-20T04:40:58.128Z,9.84
2023-11-20T04:43:25.803Z,9.86
2023-11-20T04:45:53.428Z,9.87
2023-11-20T04:48:22.420Z,9.87
2023-11-20T04:50:50.095Z,9.88
2023-11-20T04:53:17.971Z,9.87
2023-11-20T04:55:45.541Z,9.83
2023-11-20T04:58:13.225Z,9.84
2023-11-20T05:00:40.983Z,9.85
2023-11-20T05:03:09.777Z,9.84
2023-11-20T05:05:39.032Z,9.83
2023-11-20T05:08:06.860Z,9.84
2023-11-20T05:10:34.819Z,9.83
2023-11-20T05:13:03.232Z,9.84
2023-11-20T05:15:30.904Z,9.86
2023-11-20T05:17:58.552Z,9.84
2023-11-20T05:20:27.083Z,9.84
2023-11-20T05:22:56.069Z,9.78
2023-11-20T05:25:23.677Z,9.76
2023-11-20T05:27:51.422Z,9.77
2023-11-20T05:30:19.327Z,9.81
2023-11-20T05:32:46.957Z,9.77
2023-11-20T05:35:14.622Z,9.83
2023-11-20T05:37:42.213Z,9.84
2023-11-20T05:40:13.276Z,9.83
2023-11-20T05:42:42.099Z,9.81
2023-11-20T05:45:10.742Z,9.77
2023-11-20T05:47:38.391Z,9.74
2023-11-20T05:50:07.042Z,9.69
2023-11-20T05:52:35.959Z,9.69
2023-11-20T05:55:03.698Z,9.69
2023-11-20T05:57:32.794Z,9.66
2023-11-20T06:00:00.427Z,9.62
2023-11-20T06:02:28.135Z,9.55
2023-11-20T06:04:55.741Z,9.52
2023-11-20T06:07:23.864Z,9.51
2023-11-20T06:09:51.507Z,9.52
2023-11-20T06:12:19.944Z,9.52
2023-11-20T06:14:48.899Z,9.50
2023-11-20T06:17:16.705Z,9.51
2023-11-20T06:19:44.331Z,9.49
2023-11-20T06:22:11.940Z,9.50
2023-11-20T06:24:39.601Z,9.50
2023-11-20T06:27:07.225Z,9.55
2023-11-20T06:29:34.848Z,9.54
2023-11-20T06:32:03.856Z,9.55
2023-11-20T06:34:31.506Z,9.57
2023-11-20T06:36:59.108Z,9.56
2023-11-20T06:39:26.904Z,9.58
2023-11-20T06:41:54.546Z,9.60
2023-11-20T06:44:23.697Z,9.55
2023-11-20T06:46:52.883Z,9.56
2023-11-20T06:49:21.964Z,9.54
2023-11-20T06:51:49.629Z,9.56
2023-11-20T06:54:17.567Z,9.59
2023-11-20T06:56:45.158Z,9.57
2023-11-20T06:59:12.749Z,9.65
2023-11-20T07:01:45.621Z,9.68
2023-11-20T07:04:13.402Z,9.68
2023-11-20T07:06:44.279Z,9.75
2023-11-20T07:09:15.265Z,9.78
2023-11-20T07:11:43.187Z,9.82
2023-11-20T07:14:11.369Z,9.83
2023-11-20T07:16:41.531Z,9.83
2023-11-20T07:19:09.734Z,9.80
2023-11-20T07:21:38.550Z,9.77
2023-11-20T07:24:08.379Z,9.83
2023-11-20T07:26:35.997Z,9.82
2023-11-20T07:29:04.338Z,9.82
2023-11-20T07:31:32.590Z,9.83
2023-11-20T07:34:01.225Z,9.87
2023-11-20T07:36:28.854Z,9.89
2023-11-20T07:38:56.450Z,9.92
2023-11-20T07:41:25.997Z,9.97
2023-11-20T07:43:53.596Z,9.99
2023-11-20T07:46:21.294Z,9.99
2023-11-20T07:48:48.995Z,10.03
2023-11-20T07:51:17.277Z,10.05
2023-11-20T07:53:44.939Z,10.14
2023-11-20T07:56:14.349Z,10.17
2023-11-20T07:58:43.294Z,10.18
2023-11-20T08:01:11.559Z,10.18
2023-11-20T08:03:39.263Z,10.23
2023-11-20T08:06:16.867Z,10.26
2023-11-20T08:08:48.599Z,10.27
2023-11-20T08:11:16.245Z,10.27
2023-11-20T08:13:45.200Z,10.25
2023-11-20T08:16:13.049Z,10.25
2023-11-20T08:18:40.944Z,10.28
2023-11-20T08:21:08.711Z,10.24
2023-11-20T08:23:36.400Z,10.25
2023-11-20T08:26:04.054Z,10.34
2023-11-20T08:28:31.652Z,10.36
2023-11-20T08:31:00.646Z,10.35
2023-11-20T08:33:28.310Z,10.30
2023-11-20T08:35:58.308Z,10.28
2023-11-20T08:38:25.947Z,10.33
2023-11-20T08:40:53.657Z,10.32
2023-11-20T08:43:21.539Z,10.30
2023-11-20T08:45:50.394Z,10.28
2023-11-20T08:48:22.289Z,10.23
2023-11-20T08:50:50.107Z,10.22
2023-11-20T08:53:17.706Z,10.21
2023-11-20T08:55:45.854Z,10.25
2023-11-20T08:58:13.504Z,10.29
2023-11-20T09:00:41.186Z,10.31
2023-11-20T09:03:09.556Z,10.33
2023-11-20T09:05:38.572Z,10.33
2023-11-20T09:08:07.475Z,10.28
2023-11-20T09:10:35.107Z,10.31
2023-11-20T09:13:03.102Z,10.28
2023-11-20T09:15:31.130Z,10.33
2023-11-20T09:17:58.766Z,10.48
2023-11-20T09:20:26.364Z,10.54
2023-11-20T09:22:55.287Z,10.61
2023-11-20T09:25:23.527Z,10.59
2023-11-20T09:27:51.175Z,10.67
2023-11-20T09:30:18.992Z,10.74
2023-11-20T09:32:46.722Z,10.74
2023-11-20T09:35:17.025Z,10.76
2023-11-20T09:37:44.818Z,10.86
2023-11-20T09:40:14.739Z,10.94
2023-11-20T09:42:42.669Z,11.06
2023-11-20T09:45:26.465Z,11.12
2023-11-20T09:47:55.627Z,10.92
2023-11-20T09:50:23.950Z,10.99
2023-11-20T09:52:52.310Z,10.87
2023-11-20T09:55:21.443Z,10.85
2023-11-20T09:57:50.320Z,10.84
2023-11-20T10:00:20.224Z,10.91
2023-11-20T10:02:50.318Z,10.88
2023-11-20T10:05:32.502Z,10.73
2023-11-20T10:08:03.809Z,10.56
2023-11-20T10:10:35.663Z,10.41
2023-11-20T10:13:05.829Z,10.33
2023-11-20T10:15:35.097Z,10.29
2023-11-20T10:18:02.944Z,10.25
2023-11-20T10:20:45.627Z,10.24
2023-11-20T10:23:14.333Z,10.14
2023-11-20T10:25:45.626Z,10.14
2023-11-20T10:28:15.103Z,9.96
2023-11-20T10:30:44.435Z,9.96
2023-11-20T10:33:19.765Z,9.94
2023-11-20T10:35:48.027Z,9.92
2023-11-20T10:38:15.930Z,9.98
2023-11-20T10:40:46.180Z,9.92
2023-11-20T10:43:14.083Z,10.05
2023-11-20T10:45:42.140Z,10.20
2023-11-20T10:48:09.989Z,10.21
2023-11-20T10:50:39.273Z,10.20
2023-11-20T10:53:08.227Z,10.22
2023-11-20T10:55:43.360Z,10.20
2023-11-20T10:58:13.509Z,10.22
2023-11-20T11:00:42.353Z,10.18
2023-11-20T11:03:17.333Z,10.22
2023-11-20T11:05:49.837Z,10.25
2023-11-20T11:08:18.352Z,10.18
2023-11-20T11:10:46.167Z,10.26
2023-11-20T11:13:22.368Z,10.42
2023-11-20T11:15:51.643Z,10.53
2023-11-20T11:18:28.429Z,10.55
2023-11-20T11:20:57.257Z,10.56
2023-11-20T11:23:30.279Z,10.48
2023-11-20T11:26:11.285Z,10.50
2023-11-20T11:28:43.524Z,10.70
2023-11-20T11:31:16.289Z,11.00
2023-11-20T11:33:58.906Z,11.87
2023-11-20T11:36:35.256Z,12.64
2023-11-20T11:39:15.083Z,13.33
2023-11-20T11:41:48.805Z,14.60
2023-11-20T11:44:26.604Z,15.17
2023-11-20T11:46:56.830Z,14.14
2023-11-20T11:49:25.259Z,12.78
2023-11-20T11:51:54.300Z,12.15
2023-11-20T11:54:24.198Z,11.77
2023-11-20T11:57:12.421Z,11.13
2023-11-20T11:59:43.320Z,10.88
2023-11-20T12:02:13.741Z,10.59
2023-11-20T12:05:08.526Z,10.53
2023-11-20T12:07:49.131Z,10.46
2023-11-20T12:10:17.495Z,10.36
2023-11-20T12:13:11.628Z,10.35
2023-11-20T12:15:43.784Z,10.24
2023-11-20T12:18:16.568Z,9.87
2023-11-20T12:21:01.933Z,9.72
2023-11-20T12:23:31.291Z,9.87
2023-11-20T12:26:00.240Z,11.36
2023-11-20T12:28:30.373Z,11.19
2023-11-20T12:31:01.027Z,11.01
2023-11-20T12:33:31.510Z,10.77
2023-11-20T12:36:01.074Z,10.48
2023-11-20T12:38:31.360Z,10.41
2023-11-20T12:41:00.686Z,10.43
2023-11-20T12:43:29.745Z,10.30
2023-11-20T12:45:59.092Z,10.51
2023-11-20T12:48:27.013Z,10.65
2023-11-20T12:50:54.881Z,10.77
2023-11-20T12:53:23.701Z,10.98
2023-11-20T12:55:52.865Z,11.19
2023-11-20T12:58:20.700Z,11.34
2023-11-20T13:00:49.232Z,11.20
2023-11-20T13:03:19.731Z,11.20
2023-11-20T13:05:49.130Z,11.93
2023-11-20T13:08:18.949Z,12.22
2023-11-20T13:10:52.759Z,12.66
2023-11-20T13:13:22.567Z,12.78
2023-11-20T13:15:51.221Z,13.61
2023-11-20T13:18:20.791Z,13.19
2023-11-20T13:20:49.714Z,12.43
2023-11-20T13:23:19.391Z,12.19
2023-11-20T13:25:50.127Z,12.09
2023-11-20T13:28:19.379Z,11.88
2023-11-20T13:31:01.549Z,12.28
2023-11-20T13:33:31.627Z,13.13
2023-11-20T13:36:00.755Z,14.39
2023-11-20T13:38:29.998Z,14.21
2023-11-20T13:40:58.559Z,13.75
2023-11-20T13:43:28.209Z,12.88
2023-11-20T13:45:57.733Z,12.19
2023-11-20T13:48:26.289Z,11.88
2023-11-20T13:50:56.328Z,11.54
2023-11-20T13:53:25.232Z,11.15
2023-11-20T13:55:54.822Z,10.66
2023-11-20T13:58:25.906Z,10.50
2023-11-20T14:00:56.973Z,10.34
2023-11-20T14:03:25.657Z,10.09
2023-11-20T14:05:55.878Z,10.00
2023-11-20T14:08:24.997Z,9.93
2023-11-20T14:10:56.124Z,9.98
2023-11-20T14:13:25.680Z,9.88
2023-11-20T14:15:53.509Z,9.87
2023-11-20T14:18:24.265Z,9.91
2023-11-20T14:20:52.510Z,9.87
2023-11-20T14:23:21.786Z,9.83
2023-11-20T14:26:06.945Z,9.74
2023-11-20T14:28:37.345Z,9.73
2023-11-20T14:31:05.856Z,9.64
2023-11-20T14:33:33.655Z,9.62
2023-11-20T14:36:01.270Z,9.52
2023-11-20T14:38:30.636Z,9.45
2023-11-20T14:40:58.372Z,9.45
2023-11-20T14:43:26.062Z,9.24
2023-11-20T14:45:53.909Z,9.14
2023-11-20T14:48:22.838Z,9.03
2023-11-20T14:50:50.556Z,8.90
2023-11-20T14:53:18.159Z,8.82
2023-11-20T14:55:47.133Z,8.67
2023-11-20T14:58:14.739Z,8.65
2023-11-20T15:00:42.402Z,8.67
2023-11-20T15:03:10.377Z,8.54
2023-11-20T15:05:38.940Z,8.50
2023-11-20T15:08:06.728Z,8.51
2023-11-20T15:10:34.651Z,8.52
2023-11-20T15:13:03.850Z,8.55
2023-11-20T15:15:31.560Z,8.30
2023-11-20T15:17:59.204Z,8.26
2023-11-20T15:20:28.671Z,8.34
2023-11-20T15:22:58.067Z,8.15
2023-11-20T15:25:25.811Z,8.20
2023-11-20T15:27:53.495Z,8.32
2023-11-20T15:30:22.465Z,8.36
2023-11-20T15:32:50.153Z,8.39
2023-11-20T15:35:17.828Z,8.43
2023-11-20T15:37:45.446Z,8.39
2023-11-20T15:40:14.110Z,8.39
2023-11-20T15:42:43.216Z,8.34
2023-11-20T15:45:11.948Z,8.40
2023-11-20T15:47:41.038Z,8.40
2023-11-20T15:50:11.216Z,8.39
2023-11-20T15:52:38.852Z,8.40
2023-11-20T15:55:07.839Z,8.47
2023-11-20T15:57:35.502Z,8.55
2023-11-20T16:00:04.484Z,8.56
2023-11-20T16:02:41.490Z,8.58
2023-11-20T16:05:11.395Z,8.60
2023-11-20T16:07:39.946Z,8.56
2023-11-20T16:10:08.515Z,8.46
2023-11-20T16:12:36.216Z,8.28
2023-11-20T16:15:05.607Z,8.29
2023-11-20T16:17:33.343Z,8.26
2023-11-20T16:20:02.404Z,8.12
2023-11-20T16:22:30.057Z,8.12
2023-11-20T16:24:57.937Z,7.98
2023-11-20T16:27:25.901Z,7.94
2023-11-20T16:29:53.647Z,7.87
2023-11-20T16:32:21.822Z,7.85
2023-11-20T16:34:49.581Z,7.86
2023-11-20T16:37:18.987Z,7.89
2023-11-20T16:39:46.735Z,7.86
2023-11-20T16:42:14.353Z,7.76
2023-11-20T16:44:42.696Z,7.77
2023-11-20T16:47:11.140Z,7.73
2023-11-20T16:49:38.837Z,7.77
2023-11-20T16:52:08.097Z,7.72
2023-11-20T16:54:38.219Z,7.69
2023-11-20T16:57:06.948Z,7.75
2023-11-20T16:59:35.029Z,7.72
2023-11-20T17:02:04.437Z,7.70
2023-11-20T17:04:32.153Z,7.67
2023-11-20T17:06:59.923Z,7.65
2023-11-20T17:09:27.733Z,7.66
2023-11-20T17:11:56.699Z,7.66
2023-11-20T17:14:25.004Z,7.64
2023-11-20T17:16:52.812Z,7.65
2023-11-20T17:19:21.472Z,7.65
2023-11-20T17:21:49.865Z,7.66
2023-11-20T17:24:17.548Z,7.65
2023-11-20T17:26:45.166Z,7.67
2023-11-20T17:29:14.161Z,7.75
2023-11-20T17:31:41.845Z,7.79
2023-11-20T17:34:15.453Z,7.65
2023-11-20T17:36:45.206Z,7.61
2023-11-20T17:39:16.924Z,7.61
2023-11-20T17:41:44.599Z,7.61
2023-11-20T17:44:12.243Z,7.62
2023-11-20T17:46:44.554Z,7.57
2023-11-20T17:49:13.508Z,7.62
2023-11-20T17:51:41.811Z,7.58
2023-11-20T17:54:12.813Z,7.57
2023-11-20T17:56:44.591Z,7.49
2023-11-20T17:59:14.135Z,7.47
2023-11-20T18:01:42.194Z,7.53
2023-11-20T18:04:11.433Z,7.54
2023-11-20T18:06:39.234Z,7.57
2023-11-20T18:09:07.845Z,7.63
2023-11-20T18:15:48.151Z,7.66
2023-11-20T18:18:59.612Z,7.67
2023-11-20T18:21:31.596Z,7.69
2023-11-20T18:58:00.595Z,7.29
2023-11-20T19:00:30.712Z,7.27
2023-11-20T19:03:00.036Z,7.27
2023-11-20T19:05:27.872Z,7.26
2023-11-20T19:07:55.774Z,7.28
2023-11-20T19:10:23.447Z,7.28
2023-11-20T19:12:51.382Z,7.29
2023-11-20T19:15:21.396Z,7.29
2023-11-20T19:17:50.594Z,7.32
2023-11-20T19:20:18.490Z,7.30
2023-11-20T19:22:47.789Z,7.31
2023-11-20T19:25:15.913Z,7.32
2023-11-20T19:27:44.273Z,7.34
2023-11-20T19:30:17.475Z,7.34
2023-11-20T19:32:47.745Z,7.37
2023-11-20T19:35:18.267Z,7.39
2023-11-20T19:37:45.968Z,7.46
2023-11-20T19:40:14.731Z,7.46
2023-11-20T19:42:42.812Z,7.48
2023-11-20T19:45:11.307Z,7.51
2023-11-20T19:47:39.362Z,7.55
2023-11-20T19:50:08.355Z,7.56
2023-11-20T19:52:38.236Z,7.50
2023-11-20T19:55:07.657Z,7.45
2023-11-20T19:57:35.507Z,7.44
2023-11-20T20:04:09.124Z,7.16
2023-11-20T20:06:37.671Z,7.22
2023-11-20T20:09:06.942Z,7.12
2023-11-20T20:11:34.589Z,7.19
2023-11-20T20:14:06.055Z,7.24
2023-11-20T20:16:34.110Z,7.18
2023-11-20T20:19:01.851Z,7.15
2023-11-20T20:21:29.560Z,7.24
2023-11-20T20:23:57.750Z,7.23
2023-11-20T20:26:31.790Z,7.29
2023-11-20T20:29:01.333Z,7.34
2023-11-20T20:31:29.820Z,7.40
2023-11-20T20:33:58.416Z,7.40
2023-11-20T20:36:26.286Z,7.45
2023-11-20T20:38:53.942Z,7.45
2023-11-20T20:41:22.604Z,7.49
2023-11-20T20:43:51.603Z,7.49
2023-11-20T20:46:19.441Z,7.40
2023-11-20T20:48:47.193Z,7.36
2023-11-20T20:51:14.850Z,7.29
2023-11-20T20:53:42.565Z,7.30
2023-11-20T20:56:13.670Z,7.34
2023-11-20T20:58:41.362Z,7.29
2023-11-20T21:01:10.444Z,7.27
2023-11-20T21:03:38.267Z,7.25
2023-11-20T21:06:06.412Z,7.18
2023-11-20T21:08:34.072Z,7.19
2023-11-20T21:11:04.069Z,7.20
2023-11-20T21:13:31.791Z,7.20
2023-11-20T21:16:00.923Z,7.25
2023-11-20T21:18:30.052Z,7.22
2023-11-20T21:20:57.849Z,7.23
2023-11-20T21:23:25.514Z,7.20
2023-11-20T21:25:53.224Z,7.22
2023-11-20T21:28:20.952Z,7.24
2023-11-20T21:30:48.686Z,7.22
2023-11-20T21:33:16.520Z,7.22
2023-11-20T21:35:49.705Z,7.19
2023-11-20T21:38:19.214Z,7.13
2023-11-20T21:40:47.265Z,7.15
2023-11-20T21:43:15.908Z,7.16
2023-11-20T21:45:44.112Z,7.17
2023-11-20T21:48:12.418Z,7.16
2023-11-20T21:50:40.230Z,7.19
2023-11-20T21:53:09.529Z,7.22
2023-11-20T21:55:37.458Z,7.28
2023-11-20T21:58:05.210Z,7.27
2023-11-20T22:00:32.945Z,7.26
2023-11-20T22:03:01.213Z,7.24
2023-11-20T22:05:28.956Z,7.19
2023-11-20T22:07:57.027Z,7.20
2023-11-20T22:10:26.140Z,7.16
2023-11-20T22:12:53.822Z,7.15
2023-11-20T22:15:21.551Z,7.15
2023-11-20T22:17:49.222Z,7.10
2023-11-20T22:20:17.109Z,6.97
2023-11-20T22:22:44.928Z,6.97
2023-11-20T22:25:13.400Z,7.03
2023-11-20T22:27:42.683Z,6.99
2023-11-20T22:30:10.918Z,6.94
2023-11-20T22:32:38.656Z,6.90
2023-11-20T22:35:13.775Z,6.86
2023-11-20T22:37:42.891Z,6.81
2023-11-20T22:40:11.531Z,6.75
2023-11-20T22:42:39.733Z,6.68
2023-11-20T22:45:11.839Z,6.66
2023-11-20T22:47:39.686Z,6.60
2023-11-20T22:50:08.830Z,6.57
2023-11-20T22:52:38.099Z,6.46
2023-11-20T22:55:07.060Z,6.45
2023-11-20T22:57:34.886Z,6.42
2023-11-20T23:00:02.837Z,6.34
2023-11-20T23:02:31.981Z,6.23
2023-11-20T23:04:59.727Z,6.27
2023-11-20T23:07:27.917Z,6.27
2023-11-20T23:09:58.544Z,6.29
2023-11-20T23:12:26.203Z,6.30
2023-11-20T23:14:53.894Z,6.17
2023-11-20T23:17:21.583Z,6.14
2023-11-20T23:19:50.581Z,6.09
2023-11-20T23:22:18.294Z,6.05
2023-11-20T23:24:45.924Z,6.02
2023-11-20T23:27:13.599Z,6.12
2023-11-20T23:29:42.332Z,6.16
2023-11-20T23:32:10.052Z,6.17
2023-11-20T23:34:39.486Z,6.19
2023-11-20T23:37:09.978Z,6.24
2023-11-20T23:39:37.758Z,6.28
2023-11-20T23:42:05.897Z,6.31
2023-11-20T23:44:34.948Z,6.37
2023-11-20T23:47:02.848Z,6.44
2023-11-20T23:49:32.563Z,6.45
2023-11-20T23:52:00.570Z,6.52
2023-11-20T23:54:29.554Z,6.55
2023-11-20T23:56:57.523Z,6.56
2023-11-20T23:59:25.186Z,6.54
